Terminal Aerodrome Forecast
Issued by NWS

Home | Current Version | Previous Version | Text Only | Print | Product List | Glossary On
Versions: 1 2 3 4 5 6 7 8 9 10 11 12 13 14 15 16 17 18
000
FTUS44 KLZK 190520
TAFPBF
TAF
KPBF 190520Z 1906/2006 01006KT P6SM OVC007
     FM190800 VRB02KT 2SM -DZ BR OVC004
     FM191600 VRB05KT 4SM BR OVC007
     FM192200 23005KT P6SM OVC025=

USA.gov is the U.S. government's official web portal to all federal, state and local government web resources and services.